Time;durP1;ratioP1;P1;durP2;ratioP2;P2;SDS_P1;SDS_P2;PMS_P1;PMS_P2;Temp;Humidity;BMP_temperature;BMP_pressure;BME280_temperature;BME280_humidity;BME280_pressure;Samples;Min_cycle;Max_cycle;Signal;HPM_P1;HPM_P2
2024/02/22 00:01:54;;;;;;;4.97;2.70;;;23.40;46.70;;;;;;6127355;28;80328;-57
2024/02/22 00:04:54;;;;;;;4.70;2.85;;;23.40;46.80;;;;;;6127017;28;81319;-55
2024/02/22 00:07:55;;;;;;;5.55;3.13;;;23.40;46.70;;;;;;6128588;28;80507;-54
2024/02/22 00:10:57;;;;;;;6.55;2.78;;;23.40;46.70;;;;;;6127947;28;81000;-56
2024/02/22 00:13:58;;;;;;;6.57;3.03;;;23.40;46.90;;;;;;6126626;28;80165;-54
2024/02/22 00:16:58;;;;;;;4.28;2.42;;;23.40;46.60;;;;;;6128720;28;83798;-56
2024/02/22 00:19:59;;;;;;;5.25;2.92;;;23.40;46.80;;;;;;6126973;28;83773;-61
2024/02/22 00:23:01;;;;;;;4.70;2.47;;;23.40;46.70;;;;;;6131455;28;80981;-60
2024/02/22 00:26:02;;;;;;;4.45;2.70;;;23.40;46.30;;;;;;6130379;28;81035;-62
2024/02/22 00:29:02;;;;;;;2.78;1.88;;;23.40;46.40;;;;;;6128340;28;81112;-61
2024/02/22 00:32:03;;;;;;;4.40;2.47;;;23.40;47.00;;;;;;6128966;28;80363;-60
2024/02/22 00:35:05;;;;;;;4.93;2.80;;;23.40;46.30;;;;;;6128787;28;80398;-60
2024/02/22 00:38:05;;;;;;;5.65;2.90;;;23.40;46.20;;;;;;6128696;28;80948;-60
2024/02/22 00:41:06;;;;;;;5.50;3.00;;;23.40;46.10;;;;;;6127811;28;81136;-59
2024/02/22 00:44:07;;;;;;;6.25;2.92;;;23.30;45.80;;;;;;6127821;28;81167;-58
2024/02/22 00:47:07;;;;;;;4.97;2.92;;;23.30;46.00;;;;;;6124726;28;80477;-59
2024/02/22 00:50:08;;;;;;;5.53;2.90;;;23.30;45.60;;;;;;6123913;28;80574;-60
2024/02/22 00:53:09;;;;;;;6.18;3.13;;;23.30;45.80;;;;;;6129719;28;80523;-60
2024/02/22 00:56:09;;;;;;;3.92;2.30;;;23.40;45.90;;;;;;6132859;28;81635;-59
2024/02/22 00:59:10;;;;;;;4.40;2.50;;;23.30;45.70;;;;;;6127359;28;81111;-59
2024/02/22 01:02:10;;;;;;;4.25;2.58;;;23.30;45.80;;;;;;6151169;28;81492;-61
2024/02/22 01:05:11;;;;;;;5.50;2.70;;;23.30;46.00;;;;;;6117454;28;80321;-60
2024/02/22 01:08:11;;;;;;;3.83;2.35;;;23.30;46.30;;;;;;6144058;28;81167;-60
2024/02/22 01:11:12;;;;;;;4.28;2.28;;;23.30;46.30;;;;;;6144663;28;81440;-60
2024/02/22 01:14:12;;;;;;;3.70;2.58;;;23.30;46.30;;;;;;6132140;28;81364;-61
2024/02/22 01:17:14;;;;;;;4.47;2.53;;;23.30;46.30;;;;;;6132091;28;80841;-61
2024/02/22 01:20:15;;;;;;;3.85;2.08;;;23.30;46.20;;;;;;6134922;28;81445;-61
2024/02/22 01:23:16;;;;;;;7.18;2.60;;;23.30;46.10;;;;;;6142542;28;80421;-60
2024/02/22 01:26:17;;;;;;;4.28;2.28;;;23.30;46.10;;;;;;6133201;28;82861;-59
2024/02/22 01:29:17;;;;;;;4.43;2.40;;;23.40;46.10;;;;;;6141434;28;87305;-60
2024/02/22 01:32:18;;;;;;;4.55;2.38;;;23.30;46.00;;;;;;6152256;28;80349;-60
2024/02/22 01:35:18;;;;;;;4.50;2.92;;;23.40;46.00;;;;;;6131656;28;80057;-60
2024/02/22 01:38:19;;;;;;;4.75;2.83;;;23.30;45.80;;;;;;6144478;28;81350;-60
2024/02/22 01:41:19;;;;;;;4.57;2.70;;;23.30;45.70;;;;;;6132265;28;80116;-59
2024/02/22 01:44:20;;;;;;;6.15;2.83;;;23.30;45.60;;;;;;6131693;28;80304;-60
2024/02/22 01:47:20;;;;;;;4.22;2.50;;;23.40;45.60;;;;;;6131150;28;80428;-60
2024/02/22 01:50:21;;;;;;;4.50;2.92;;;23.30;45.50;;;;;;6131410;28;80430;-60
2024/02/22 01:53:21;;;;;;;5.35;2.63;;;23.30;45.50;;;;;;6130820;28;80280;-60
2024/02/22 01:56:22;;;;;;;5.78;3.13;;;23.30;45.50;;;;;;6131355;28;81411;-60
2024/02/22 01:59:23;;;;;;;5.43;3.17;;;23.30;45.50;;;;;;6131260;28;80764;-60
2024/02/22 02:02:24;;;;;;;6.15;3.22;;;23.30;45.60;;;;;;6131182;28;80857;-60
2024/02/22 02:05:24;;;;;;;10.73;3.72;;;23.30;45.20;;;;;;6131474;28;80404;-60
2024/02/22 02:08:25;;;;;;;5.50;2.63;;;23.30;45.50;;;;;;6131241;28;82605;-60
2024/02/22 02:11:26;;;;;;;5.22;3.03;;;23.30;45.50;;;;;;6130749;28;80557;-60
2024/02/22 02:14:26;;;;;;;6.80;3.30;;;23.30;45.10;;;;;;6136302;28;80913;-60
2024/02/22 02:17:26;;;;;;;4.65;2.72;;;23.30;45.20;;;;;;6130600;28;80614;-59
2024/02/22 02:20:27;;;;;;;3.67;2.50;;;23.30;45.20;;;;;;6127482;28;82237;-58
2024/02/22 02:23:28;;;;;;;5.07;2.50;;;23.20;45.50;;;;;;6127037;28;83347;-58
2024/02/22 02:26:28;;;;;;;5.00;2.60;;;23.30;45.20;;;;;;6127359;28;82946;-59
2024/02/22 02:29:29;;;;;;;4.70;2.95;;;23.30;45.10;;;;;;6127673;28;80608;-59
2024/02/22 02:32:29;;;;;;;5.45;2.70;;;23.30;44.90;;;;;;6126701;28;80941;-59
2024/02/22 02:35:30;;;;;;;4.55;2.63;;;23.30;44.90;;;;;;6126354;28;80685;-59
2024/02/22 02:38:30;;;;;;;6.50;3.05;;;23.30;44.90;;;;;;6128963;28;81027;-58
2024/02/22 02:41:31;;;;;;;4.47;2.75;;;23.30;44.90;;;;;;6108111;28;81595;-58
2024/02/22 02:44:31;;;;;;;5.60;2.38;;;23.30;45.00;;;;;;6116686;28;80350;-59
2024/02/22 02:47:33;;;;;;;3.60;2.30;;;23.30;45.00;;;;;;6129195;28;81567;-57
2024/02/22 02:50:33;;;;;;;4.25;2.22;;;23.30;44.90;;;;;;6115757;28;80592;-55
2024/02/22 02:53:34;;;;;;;3.08;2.03;;;23.30;45.00;;;;;;6129722;28;81289;-56
2024/02/22 02:56:34;;;;;;;5.63;2.53;;;23.30;45.00;;;;;;6129604;28;82523;-56
2024/02/22 02:59:35;;;;;;;4.70;2.28;;;23.30;44.90;;;;;;6108127;28;80899;-56
2024/02/22 03:02:35;;;;;;;4.53;2.08;;;23.20;44.90;;;;;;6128178;28;82341;-55
2024/02/22 03:05:36;;;;;;;2.58;2.03;;;23.30;44.90;;;;;;6128308;28;81015;-62
2024/02/22 03:08:36;;;;;;;2.72;1.73;;;23.30;44.90;;;;;;6130467;28;80839;-61
2024/02/22 03:11:37;;;;;;;4.00;2.00;;;23.30;44.90;;;;;;6130178;28;81032;-60
2024/02/22 03:14:37;;;;;;;2.97;2.08;;;23.30;45.00;;;;;;6126036;28;84879;-60
2024/02/22 03:17:38;;;;;;;3.38;2.28;;;23.30;45.00;;;;;;6134490;28;80595;-61
2024/02/22 03:20:39;;;;;;;2.95;1.88;;;23.30;45.10;;;;;;6130283;28;81377;-60
2024/02/22 03:23:39;;;;;;;2.58;1.63;;;23.30;45.10;;;;;;6131020;28;81845;-61
2024/02/22 03:26:41;;;;;;;3.70;1.88;;;23.30;45.00;;;;;;6129265;28;81022;-62
2024/02/22 03:29:41;;;;;;;3.20;1.95;;;23.20;45.00;;;;;;6129500;28;80578;-63
2024/02/22 03:32:42;;;;;;;3.03;2.00;;;23.30;45.10;;;;;;6129403;28;81203;-61
2024/02/22 03:35:42;;;;;;;3.13;1.55;;;23.20;44.70;;;;;;6129193;28;81216;-60
2024/02/22 03:38:43;;;;;;;3.10;1.80;;;23.20;44.70;;;;;;6129916;28;81239;-60
2024/02/22 03:41:45;;;;;;;2.35;1.58;;;23.20;44.80;;;;;;6142605;28;80624;-60
2024/02/22 03:44:45;;;;;;;3.00;1.63;;;23.20;44.90;;;;;;6129720;28;80543;-61
2024/02/22 03:47:46;;;;;;;2.65;1.30;;;23.20;44.90;;;;;;6129205;28;80598;-60
2024/02/22 03:50:46;;;;;;;2.55;1.45;;;23.20;44.90;;;;;;6115609;28;80922;-60
2024/02/22 03:53:47;;;;;;;2.65;1.60;;;23.30;44.80;;;;;;6129812;28;80707;-60
2024/02/22 03:56:48;;;;;;;2.03;1.70;;;23.20;44.80;;;;;;6129990;28;80547;-61
2024/02/22 03:59:49;;;;;;;2.65;1.60;;;23.20;44.70;;;;;;6129821;28;81768;-60
2024/02/22 04:02:50;;;;;;;3.30;1.85;;;23.20;44.90;;;;;;6128734;28;82956;-60
2024/02/22 04:05:51;;;;;;;3.15;1.70;;;23.20;45.10;;;;;;6130268;28;80191;-60
2024/02/22 04:08:51;;;;;;;3.80;1.52;;;23.20;44.90;;;;;;6129775;28;82880;-60
2024/02/22 04:11:52;;;;;;;5.75;2.25;;;23.20;44.70;;;;;;6128550;28;81576;-61
2024/02/22 04:14:52;;;;;;;3.35;1.67;;;23.20;44.90;;;;;;6128462;28;80742;-60
2024/02/22 04:17:53;;;;;;;2.28;1.50;;;23.20;45.00;;;;;;6126119;28;80848;-53
2024/02/22 04:20:53;;;;;;;2.83;1.33;;;23.20;44.90;;;;;;6122752;28;80945;-55
2024/02/22 04:23:54;;;;;;;3.58;1.52;;;23.20;45.10;;;;;;6124170;28;81178;-56
2024/02/22 04:26:54;;;;;;;2.45;1.30;;;23.20;44.90;;;;;;6124446;28;80572;-55
2024/02/22 04:29:55;;;;;;;3.13;1.50;;;23.20;44.70;;;;;;6125779;28;80448;-55
2024/02/22 04:32:55;;;;;;;1.92;1.30;;;23.20;44.80;;;;;;6127177;28;80647;-52
2024/02/22 04:35:56;;;;;;;2.33;1.20;;;23.20;44.60;;;;;;6125269;28;80646;-51
2024/02/22 04:38:56;;;;;;;2.03;1.20;;;23.20;44.50;;;;;;6128443;28;81627;-51
2024/02/22 04:41:57;;;;;;;2.10;1.40;;;23.20;44.90;;;;;;6123385;28;81012;-53
2024/02/22 04:44:58;;;;;;;2.55;1.40;;;23.20;44.80;;;;;;6127069;28;80399;-54
2024/02/22 04:48:01;;;;;;;3.22;1.35;;;23.20;44.70;;;;;;6125488;28;80659;-56
2024/02/22 04:51:01;;;;;;;2.08;1.20;;;23.20;44.90;;;;;;6110794;28;83791;-55
2024/02/22 04:54:02;;;;;;;2.58;1.35;;;23.20;45.70;;;;;;6128206;28;81407;-58
2024/02/22 04:57:02;;;;;;;1.70;1.30;;;23.20;45.40;;;;;;6131880;28;86778;-60
2024/02/22 05:00:05;;;;;;;2.20;1.08;;;23.20;45.20;;;;;;6134397;28;80293;-58
2024/02/22 05:03:05;;;;;;;5.55;1.25;;;23.20;45.40;;;;;;6127118;28;80444;-60
2024/02/22 05:06:06;;;;;;;2.63;1.20;;;23.20;45.30;;;;;;6127673;28;80336;-59
2024/02/22 05:09:06;;;;;;;2.78;1.70;;;23.30;45.40;;;;;;6128165;28;80456;-58
2024/02/22 05:12:07;;;;;;;5.00;2.30;;;23.30;45.90;;;;;;6127278;28;81052;-48
2024/02/22 05:15:10;;;;;;;6.22;2.10;;;23.30;47.40;;;;;;6124819;28;81473;-52
2024/02/22 05:18:11;;;;;;;6.85;2.83;;;23.30;47.50;;;;;;6130659;28;80269;-51
2024/02/22 05:21:11;;;;;;;8.82;2.13;;;23.30;47.60;;;;;;6127983;28;80285;-54
2024/02/22 05:24:12;;;;;;;4.88;2.20;;;23.30;48.80;;;;;;6121073;28;81956;-50
2024/02/22 05:27:12;;;;;;;4.50;2.20;;;23.30;48.40;;;;;;6126109;28;80836;-56
2024/02/22 05:30:13;;;;;;;7.53;1.85;;;23.30;48.50;;;;;;6126394;28;80927;-49
2024/02/22 05:33:13;;;;;;;3.22;1.60;;;23.30;48.40;;;;;;6127648;28;80945;-57
2024/02/22 05:36:14;;;;;;;5.68;2.72;;;23.30;48.10;;;;;;6127358;28;81598;-55
2024/02/22 05:39:15;;;;;;;5.43;2.22;;;23.30;48.70;;;;;;6118129;28;81924;-47
2024/02/22 05:42:15;;;;;;;3.22;1.63;;;23.30;49.00;;;;;;6118513;28;85490;-51
2024/02/22 05:45:16;;;;;;;7.72;1.77;;;23.30;48.20;;;;;;6104094;28;81446;-51
2024/02/22 05:48:16;;;;;;;9.05;2.30;;;23.30;48.70;;;;;;6105470;28;80841;-50
2024/02/22 05:51:17;;;;;;;12.52;3.33;;;23.30;48.30;;;;;;6120878;28;80937;-60
2024/02/22 05:54:17;;;;;;;13.90;2.30;;;23.30;48.10;;;;;;6136382;28;80855;-61
2024/02/22 05:57:18;;;;;;;9.27;2.00;;;23.30;47.80;;;;;;6119099;28;80293;-63
2024/02/22 06:00:18;;;;;;;9.48;2.38;;;23.30;48.30;;;;;;6134583;28;80887;-63
2024/02/22 06:03:19;;;;;;;11.77;2.25;;;23.30;48.40;;;;;;6127169;28;80449;-64
2024/02/22 06:06:19;;;;;;;13.65;2.42;;;23.30;48.00;;;;;;6131392;28;80477;-63
2024/02/22 06:09:20;;;;;;;5.97;2.50;;;23.20;47.80;;;;;;6131548;28;80454;-59
2024/02/22 06:12:20;;;;;;;5.20;2.03;;;23.20;47.80;;;;;;6131950;28;80542;-60
2024/02/22 06:15:21;;;;;;;6.25;2.17;;;23.20;47.70;;;;;;6132841;28;80652;-61
2024/02/22 06:18:22;;;;;;;4.40;2.25;;;23.20;47.60;;;;;;6130490;28;80998;-58
2024/02/22 06:21:22;;;;;;;6.63;2.35;;;23.20;47.30;;;;;;6128896;28;81134;-59
2024/02/22 06:24:24;;;;;;;6.70;2.58;;;23.20;47.30;;;;;;6129343;28;80509;-60
2024/02/22 06:27:24;;;;;;;11.15;2.70;;;23.10;47.00;;;;;;6139558;28;81688;-59
2024/02/22 06:30:25;;;;;;;5.65;2.40;;;23.10;46.50;;;;;;6117910;28;80454;-60
2024/02/22 06:33:25;;;;;;;5.85;2.67;;;23.10;46.30;;;;;;6130269;28;80851;-60
2024/02/22 06:36:26;;;;;;;9.38;3.17;;;23.10;46.70;;;;;;6131906;28;80608;-60
2024/02/22 06:39:27;;;;;;;6.30;3.13;;;23.10;46.60;;;;;;6132274;28;80616;-60
2024/02/22 06:42:28;;;;;;;9.98;4.30;;;23.10;46.80;;;;;;6131419;28;81118;-60
2024/02/22 06:45:28;;;;;;;9.52;4.18;;;23.00;46.50;;;;;;6126883;28;80319;-61
2024/02/22 06:48:29;;;;;;;9.98;4.32;;;23.00;46.50;;;;;;6126449;28;81124;-59
2024/02/22 06:51:29;;;;;;;7.75;4.15;;;23.00;46.20;;;;;;6127800;28;80888;-60
2024/02/22 06:54:30;;;;;;;10.13;4.63;;;23.00;45.50;;;;;;6121999;28;80578;-59
2024/02/22 06:57:30;;;;;;;8.68;4.63;;;23.00;45.00;;;;;;6129859;28;80526;-58
2024/02/22 07:00:32;;;;;;;10.95;4.80;;;22.90;44.00;;;;;;6129591;28;82755;-59
2024/02/22 07:03:33;;;;;;;7.13;3.95;;;22.90;42.40;;;;;;6110349;28;80789;-55
2024/02/22 07:06:33;;;;;;;8.77;4.63;;;22.90;41.90;;;;;;6113781;28;80668;-55
2024/02/22 07:09:34;;;;;;;9.90;4.10;;;22.90;42.40;;;;;;6121621;28;81086;-54
2024/02/22 07:12:35;;;;;;;5.75;3.40;;;22.90;41.60;;;;;;6118820;28;80388;-55
2024/02/22 07:15:35;;;;;;;7.05;2.95;;;22.80;41.40;;;;;;6120746;28;81010;-55
2024/02/22 07:18:36;;;;;;;6.95;3.53;;;22.80;41.20;;;;;;6128577;28;81336;-55
2024/02/22 07:21:36;;;;;;;9.38;3.45;;;22.80;40.80;;;;;;6127155;28;81621;-60
2024/02/22 07:24:37;;;;;;;9.07;3.35;;;22.80;40.60;;;;;;6131334;28;80741;-61
2024/02/22 07:27:39;;;;;;;5.35;2.78;;;22.70;40.40;;;;;;6139646;28;82681;-60
2024/02/22 07:30:39;;;;;;;4.80;2.55;;;22.70;40.50;;;;;;6139524;28;80869;-61
2024/02/22 07:33:40;;;;;;;5.13;2.42;;;22.70;40.70;;;;;;6114984;28;81748;-61
2024/02/22 07:36:40;;;;;;;7.40;2.75;;;22.70;40.00;;;;;;6141693;28;81510;-61
2024/02/22 07:39:41;;;;;;;4.32;2.58;;;22.70;39.60;;;;;;6135209;28;81085;-61
2024/02/22 07:42:41;;;;;;;4.32;2.30;;;22.60;39.10;;;;;;6145723;28;80593;-61
2024/02/22 07:45:42;;;;;;;3.65;2.08;;;22.60;39.60;;;;;;6139120;28;81511;-61
2024/02/22 07:48:42;;;;;;;4.70;2.25;;;22.60;40.50;;;;;;6130826;28;80895;-62
2024/02/22 07:51:43;;;;;;;5.25;2.50;;;22.60;39.40;;;;;;6130518;28;80910;-61
2024/02/22 07:54:46;;;;;;;6.32;2.38;;;22.60;39.30;;;;;;6139620;28;80738;-60
2024/02/22 07:57:47;;;;;;;4.78;2.40;;;22.60;39.40;;;;;;6131699;28;80904;-50
2024/02/22 08:00:48;;;;;;;4.80;2.15;;;22.60;38.90;;;;;;6128355;28;82008;-51
2024/02/22 08:03:49;;;;;;;5.28;2.42;;;22.60;39.10;;;;;;6129310;28;80556;-55
2024/02/22 08:06:50;;;;;;;5.40;2.35;;;22.50;38.90;;;;;;6128866;28;80333;-51
2024/02/22 08:09:50;;;;;;;3.80;2.20;;;22.50;38.70;;;;;;6128379;28;82163;-53
2024/02/22 08:12:51;;;;;;;9.20;2.60;;;22.60;38.70;;;;;;6128612;28;80417;-55
2024/02/22 08:15:51;;;;;;;4.07;2.25;;;22.60;39.40;;;;;;6127953;28;80540;-58
2024/02/22 08:18:52;;;;;;;3.72;2.10;;;22.50;39.10;;;;;;6128342;28;80930;-58
2024/02/22 08:21:52;;;;;;;5.55;2.33;;;22.50;38.60;;;;;;6121671;28;81814;-58
2024/02/22 08:24:53;;;;;;;7.50;2.60;;;22.50;38.70;;;;;;6134016;28;80718;-57
2024/02/22 08:27:54;;;;;;;3.72;2.42;;;22.60;38.70;;;;;;6139959;28;80357;-58
2024/02/22 08:30:55;;;;;;;4.72;2.15;;;22.60;39.10;;;;;;6123814;28;80557;-56
2024/02/22 08:33:55;;;;;;;2.53;2.08;;;22.60;39.50;;;;;;6129125;28;83932;-55
2024/02/22 08:36:56;;;;;;;4.18;2.08;;;22.70;39.60;;;;;;6126434;28;81445;-57
2024/02/22 08:39:56;;;;;;;8.10;2.63;;;22.70;39.90;;;;;;6130079;28;80746;-57
2024/02/22 08:43:00;;;;;;;6.25;2.40;;;22.70;40.00;;;;;;6134569;28;80859;-58
2024/02/22 08:46:01;;;;;;;2.67;1.77;;;22.80;40.30;;;;;;6125320;28;81089;-58
2024/02/22 08:49:01;;;;;;;2.25;1.80;;;22.80;40.40;;;;;;6126846;28;81571;-59
2024/02/22 08:52:04;;;;;;;2.70;2.05;;;22.80;40.80;;;;;;6124921;28;81690;-56
2024/02/22 08:55:04;;;;;;;3.55;1.70;;;22.80;40.80;;;;;;6129956;28;83134;-50
2024/02/22 08:58:05;;;;;;;4.15;2.13;;;22.90;41.00;;;;;;6128092;28;80987;-52
2024/02/22 09:01:05;;;;;;;3.80;1.90;;;22.80;40.90;;;;;;6116091;28;80881;-50
2024/02/22 09:04:07;;;;;;;3.25;2.20;;;22.90;41.20;;;;;;6125481;28;81283;-53
2024/02/22 09:07:08;;;;;;;5.38;2.40;;;22.90;41.20;;;;;;6128580;28;80353;-51
2024/02/22 09:10:08;;;;;;;6.53;2.35;;;22.90;41.40;;;;;;6114428;28;81422;-50
2024/02/22 09:13:09;;;;;;;3.45;2.10;;;22.90;40.90;;;;;;6126733;28;80456;-56
2024/02/22 09:16:09;;;;;;;4.43;2.15;;;22.90;41.10;;;;;;6129913;28;81386;-58
2024/02/22 09:19:11;;;;;;;3.90;2.15;;;22.90;41.10;;;;;;6124464;28;81469;-58
2024/02/22 09:22:12;;;;;;;3.80;1.77;;;22.90;41.20;;;;;;6128773;28;82100;-58
2024/02/22 09:25:13;;;;;;;7.68;2.75;;;23.00;41.50;;;;;;6129679;28;80524;-61
2024/02/22 09:28:14;;;;;;;3.50;2.22;;;23.00;41.40;;;;;;6129784;28;81880;-59
2024/02/22 09:31:17;;;;;;;3.17;1.77;;;23.00;41.60;;;;;;6132596;28;80461;-62
2024/02/22 09:34:17;;;;;;;3.47;1.90;;;23.00;41.50;;;;;;6131332;28;81216;-60
2024/02/22 09:37:19;;;;;;;5.50;2.05;;;23.00;41.70;;;;;;6132721;28;86271;-61
2024/02/22 09:40:21;;;;;;;4.13;1.90;;;23.10;41.70;;;;;;6132615;28;83074;-61
2024/02/22 09:43:22;;;;;;;2.33;1.80;;;23.10;41.30;;;;;;6133189;28;81578;-60
2024/02/22 09:46:22;;;;;;;3.50;2.45;;;23.10;41.50;;;;;;6134151;28;80416;-60
2024/02/22 09:49:23;;;;;;;5.82;2.20;;;23.10;41.60;;;;;;6130724;28;80563;-60
2024/02/22 09:52:24;;;;;;;5.93;2.55;;;23.10;41.50;;;;;;6132537;28;80841;-60
2024/02/22 09:55:24;;;;;;;4.03;2.05;;;23.10;41.30;;;;;;6134634;28;80518;-59
2024/02/22 09:58:25;;;;;;;3.88;2.28;;;23.10;41.40;;;;;;6109426;28;83553;-59
2024/02/22 10:01:25;;;;;;;5.55;2.10;;;23.10;41.00;;;;;;6134499;28;80252;-61
2024/02/22 10:04:27;;;;;;;4.25;2.60;;;23.10;41.20;;;;;;6131704;28;80874;-60
2024/02/22 10:07:27;;;;;;;2.25;1.80;;;23.10;41.30;;;;;;6134473;28;81425;-60
2024/02/22 10:10:28;;;;;;;5.90;2.13;;;23.10;41.20;;;;;;6137278;28;80195;-60
2024/02/22 10:13:28;;;;;;;3.17;2.10;;;23.10;41.20;;;;;;6139997;28;81495;-60
2024/02/22 10:16:29;;;;;;;3.40;1.90;;;23.20;41.10;;;;;;6130716;28;80623;-60
2024/02/22 10:19:29;;;;;;;3.58;2.35;;;23.10;40.90;;;;;;6134236;28;80935;-60
2024/02/22 10:22:31;;;;;;;2.53;1.63;;;23.20;41.00;;;;;;6129035;28;81734;-60
2024/02/22 10:25:31;;;;;;;3.75;2.30;;;23.20;41.30;;;;;;6135193;28;80361;-51
2024/02/22 10:28:32;;;;;;;3.97;2.35;;;23.20;41.20;;;;;;6131337;28;81508;-50
2024/02/22 10:31:34;;;;;;;3.88;2.20;;;23.20;41.20;;;;;;6124659;28;84175;-52
2024/02/22 10:34:34;;;;;;;3.67;2.03;;;23.20;41.00;;;;;;6124198;28;80660;-54
2024/02/22 10:37:36;;;;;;;5.75;2.17;;;23.20;41.00;;;;;;6130201;28;80370;-50
2024/02/22 10:40:37;;;;;;;2.88;2.00;;;23.30;41.10;;;;;;6122313;28;81023;-52
2024/02/22 10:43:37;;;;;;;2.63;2.10;;;23.30;40.80;;;;;;6121032;28;81203;-62
2024/02/22 10:46:38;;;;;;;4.20;2.05;;;23.30;40.60;;;;;;6126062;28;81457;-62
2024/02/22 10:49:38;;;;;;;3.53;2.35;;;23.30;40.60;;;;;;6128660;28;82782;-62
2024/02/22 10:52:42;;;;;;;2.97;2.20;;;23.30;40.70;;;;;;6131128;28;80299;-61
2024/02/22 10:55:42;;;;;;;4.90;2.25;;;23.30;40.90;;;;;;6147114;28;81645;-62
2024/02/22 10:58:43;;;;;;;2.55;1.90;;;23.30;40.80;;;;;;6140950;28;80638;-63
2024/02/22 11:01:43;;;;;;;3.10;1.90;;;23.30;40.80;;;;;;6123700;28;83485;-64
2024/02/22 11:04:44;;;;;;;3.90;1.98;;;23.30;41.00;;;;;;6128996;28;81999;-62
2024/02/22 11:07:44;;;;;;;3.03;2.05;;;23.30;40.70;;;;;;6127074;28;83137;-62
2024/02/22 11:10:45;;;;;;;3.95;1.95;;;23.30;40.80;;;;;;6123421;28;83102;-62
2024/02/22 11:13:46;;;;;;;3.15;2.10;;;23.30;40.80;;;;;;6133837;28;82087;-61
2024/02/22 11:16:46;;;;;;;3.45;1.80;;;23.30;40.90;;;;;;6135004;28;80868;-61
2024/02/22 11:19:51;;;;;;;2.75;1.98;;;23.30;41.00;;;;;;6131697;28;82999;-62
2024/02/22 11:22:52;;;;;;;4.90;2.38;;;23.30;41.10;;;;;;6132126;28;80766;-61
2024/02/22 11:25:52;;;;;;;3.85;2.17;;;23.30;41.00;;;;;;6130470;28;80673;-61
2024/02/22 11:28:53;;;;;;;3.42;2.30;;;23.30;41.00;;;;;;6128265;28;80885;-62
2024/02/22 11:31:53;;;;;;;3.15;1.95;;;23.30;40.90;;;;;;6131471;28;80778;-61
2024/02/22 11:34:54;;;;;;;2.45;1.75;;;23.30;41.00;;;;;;6131694;28;81156;-61
2024/02/22 11:37:55;;;;;;;3.58;2.25;;;23.40;41.10;;;;;;6131468;28;80685;-58
2024/02/22 11:40:55;;;;;;;2.45;2.13;;;23.30;41.00;;;;;;6130076;28;80212;-57
2024/02/22 11:43:56;;;;;;;2.83;2.05;;;23.30;41.10;;;;;;6113794;28;81075;-54
2024/02/22 11:46:57;;;;;;;4.25;1.75;;;23.30;41.20;;;;;;6127646;28;80516;-56
2024/02/22 11:49:58;;;;;;;3.13;2.00;;;23.30;41.10;;;;;;6142637;28;82015;-54
2024/02/22 11:52:58;;;;;;;2.75;1.95;;;23.40;41.10;;;;;;6144345;28;80431;-58
2024/02/22 11:55:59;;;;;;;2.47;1.95;;;23.40;41.20;;;;;;6128899;28;80444;-56
2024/02/22 11:58:59;;;;;;;4.28;2.38;;;23.40;41.20;;;;;;6114582;28;81277;-50
2024/02/22 12:02:00;;;;;;;3.13;1.90;;;23.40;41.30;;;;;;6129813;28;81966;-51
2024/02/22 12:05:00;;;;;;;3.45;2.25;;;23.40;41.40;;;;;;6129667;28;80549;-54
2024/02/22 12:08:01;;;;;;;2.50;2.08;;;23.40;41.30;;;;;;6128516;28;81168;-52
2024/02/22 12:11:04;;;;;;;3.97;2.50;;;23.40;41.20;;;;;;6127899;28;81453;-55
2024/02/22 12:14:04;;;;;;;3.42;1.95;;;23.40;41.30;;;;;;6125913;28;80451;-51
2024/02/22 12:17:05;;;;;;;3.40;2.17;;;23.40;41.30;;;;;;6124488;28;81055;-53
2024/02/22 12:20:06;;;;;;;3.38;2.10;;;23.40;41.50;;;;;;6128984;28;82168;-52
2024/02/22 12:23:07;;;;;;;3.75;2.28;;;23.40;41.50;;;;;;6127391;28;81076;-52
2024/02/22 12:26:08;;;;;;;3.65;2.25;;;23.40;41.70;;;;;;6123765;28;81055;-54
2024/02/22 12:29:08;;;;;;;3.13;2.28;;;23.40;41.70;;;;;;6127248;28;80438;-54
2024/02/22 12:32:09;;;;;;;4.57;2.13;;;23.40;41.70;;;;;;6127230;28;80057;-53
2024/02/22 12:35:09;;;;;;;2.95;2.40;;;23.40;41.70;;;;;;6121624;28;81187;-61
2024/02/22 12:38:10;;;;;;;3.50;1.90;;;23.40;41.60;;;;;;6114515;28;80397;-61
2024/02/22 12:41:10;;;;;;;4.30;2.70;;;23.40;41.60;;;;;;6137036;28;80741;-61
2024/02/22 12:44:11;;;;;;;3.65;2.30;;;23.50;41.90;;;;;;6140864;28;80761;-61
2024/02/22 12:47:12;;;;;;;4.03;2.05;;;23.50;41.60;;;;;;6139461;28;80544;-61
2024/02/22 12:50:13;;;;;;;2.35;2.05;;;23.50;41.70;;;;;;6129747;28;80269;-60
2024/02/22 12:53:13;;;;;;;3.40;2.17;;;23.50;41.70;;;;;;6140089;28;80466;-59
2024/02/22 12:56:14;;;;;;;3.15;2.45;;;23.40;41.50;;;;;;6123219;28;80294;-59
2024/02/22 12:59:15;;;;;;;3.60;2.15;;;23.40;41.50;;;;;;6126520;28;80241;-58
2024/02/22 13:02:16;;;;;;;2.90;1.92;;;23.40;41.60;;;;;;6129847;28;80727;-58
2024/02/22 13:05:16;;;;;;;4.00;2.25;;;23.40;41.60;;;;;;6132389;28;81333;-59
2024/02/22 13:08:20;;;;;;;3.03;2.05;;;23.50;41.50;;;;;;6133661;28;81311;-59
2024/02/22 13:11:21;;;;;;;2.58;1.90;;;23.40;41.40;;;;;;6127710;28;81783;-58
2024/02/22 13:14:21;;;;;;;2.83;1.90;;;23.30;40.20;;;;;;6133639;28;80918;-58
2024/02/22 13:17:22;;;;;;;4.85;2.30;;;22.90;39.10;;;;;;6129374;28;81675;-58
2024/02/22 13:20:23;;;;;;;3.30;1.85;;;22.50;39.00;;;;;;6128031;28;80586;-59
2024/02/22 13:23:24;;;;;;;3.63;2.08;;;22.50;38.80;;;;;;6129434;28;80331;-59
2024/02/22 13:26:24;;;;;;;4.03;2.17;;;22.40;38.30;;;;;;6128759;28;80474;-58
2024/02/22 13:29:25;;;;;;;4.25;2.53;;;22.40;38.20;;;;;;6128940;28;80321;-58
2024/02/22 13:32:25;;;;;;;4.03;2.47;;;22.30;38.00;;;;;;6131705;28;80420;-58
2024/02/22 13:35:26;;;;;;;4.70;2.85;;;21.90;37.50;;;;;;6131435;28;80725;-59
2024/02/22 13:38:26;;;;;;;6.82;2.97;;;21.80;37.90;;;;;;6131139;28;80998;-60
2024/02/22 13:41:27;;;;;;;5.78;2.45;;;22.10;38.20;;;;;;6114470;28;81966;-58
2024/02/22 13:44:28;;;;;;;3.20;2.33;;;22.30;38.40;;;;;;6124960;28;80108;-58
2024/02/22 13:47:29;;;;;;;4.90;2.53;;;22.40;38.70;;;;;;6126114;28;82986;-58
2024/02/22 13:50:30;;;;;;;6.43;2.42;;;22.60;39.10;;;;;;6125100;28;80394;-58
2024/02/22 13:53:31;;;;;;;5.10;2.38;;;22.70;39.30;;;;;;6123876;28;82927;-58
2024/02/22 13:56:31;;;;;;;3.08;2.38;;;22.70;39.50;;;;;;6130621;28;81538;-56
2024/02/22 13:59:32;;;;;;;10.60;2.20;;;22.80;39.40;;;;;;6130012;28;81583;-56
2024/02/22 14:02:32;;;;;;;4.68;2.63;;;22.80;39.70;;;;;;6130582;28;81077;-55
2024/02/22 14:05:33;;;;;;;8.25;2.67;;;22.90;39.80;;;;;;6147457;28;80479;-58
2024/02/22 14:08:33;;;;;;;7.88;2.30;;;23.00;40.00;;;;;;6130582;28;80882;-57
2024/02/22 14:11:35;;;;;;;3.90;1.92;;;23.00;40.30;;;;;;6127982;28;80227;-57
2024/02/22 14:14:35;;;;;;;9.00;2.60;;;23.00;40.30;;;;;;6130643;28;80826;-56
2024/02/22 14:17:38;;;;;;;7.25;2.55;;;23.00;40.20;;;;;;6128039;28;80774;-58
2024/02/22 14:20:41;;;;;;;4.38;2.33;;;23.00;40.20;;;;;;6129934;28;80611;-56
2024/02/22 14:23:42;;;;;;;4.80;2.53;;;23.10;40.40;;;;;;6130100;28;80607;-59
2024/02/22 14:26:43;;;;;;;4.78;2.20;;;23.10;40.30;;;;;;6129678;28;80207;-57
2024/02/22 14:29:44;;;;;;;2.90;2.08;;;23.10;40.60;;;;;;6130349;28;83958;-58
2024/02/22 14:32:44;;;;;;;3.35;2.20;;;23.10;40.60;;;;;;6130340;28;80155;-55
2024/02/22 14:35:48;;;;;;;4.90;2.60;;;23.10;40.70;;;;;;6129971;28;80659;-56
2024/02/22 14:38:49;;;;;;;5.55;2.10;;;23.20;40.90;;;;;;6130729;28;82691;-55
2024/02/22 14:41:50;;;;;;;6.88;2.47;;;23.20;41.10;;;;;;6129282;28;83608;-54
2024/02/22 14:44:51;;;;;;;3.75;2.15;;;23.20;41.00;;;;;;6130320;28;80456;-50
2024/02/22 14:47:52;;;;;;;5.13;3.10;;;23.20;41.10;;;;;;6128217;28;81578;-53
2024/02/22 14:50:53;;;;;;;6.65;2.42;;;23.20;40.90;;;;;;6129145;28;80577;-53
2024/02/22 14:53:54;;;;;;;4.85;2.95;;;23.30;41.20;;;;;;6129542;28;80716;-52
2024/02/22 14:56:55;;;;;;;3.35;2.15;;;23.30;41.10;;;;;;6128453;28;80676;-53
2024/02/22 14:59:55;;;;;;;8.82;2.20;;;23.30;41.10;;;;;;6129982;28;80204;-56
2024/02/22 15:02:56;;;;;;;4.10;2.97;;;23.30;41.20;;;;;;6130448;28;80447;-55
2024/02/22 15:05:57;;;;;;;4.05;2.70;;;23.30;40.80;;;;;;6128410;28;82876;-56
2024/02/22 15:08:57;;;;;;;5.88;2.38;;;23.30;41.10;;;;;;6129032;28;80648;-56
2024/02/22 15:11:58;;;;;;;3.05;2.28;;;23.30;40.90;;;;;;6124768;28;84109;-57
2024/02/22 15:14:59;;;;;;;5.28;2.80;;;23.30;41.10;;;;;;6127531;28;81011;-54
2024/02/22 15:18:00;;;;;;;4.95;2.28;;;23.30;40.70;;;;;;6128099;28;80626;-57
2024/02/22 15:21:00;;;;;;;3.78;2.72;;;23.30;40.50;;;;;;6123995;28;82551;-55
2024/02/22 15:24:01;;;;;;;3.25;2.30;;;23.30;40.60;;;;;;6128069;28;83317;-59
2024/02/22 15:27:01;;;;;;;5.93;2.80;;;23.30;40.90;;;;;;6123779;28;80271;-58
2024/02/22 15:30:02;;;;;;;2.30;1.95;;;23.30;40.80;;;;;;6130359;28;83736;-57
2024/02/22 15:33:02;;;;;;;11.88;3.40;;;23.30;40.90;;;;;;6122982;28;83088;-53
2024/02/22 15:36:04;;;;;;;4.20;2.75;;;23.30;41.00;;;;;;6122441;28;80685;-54
2024/02/22 15:39:04;;;;;;;3.30;2.30;;;23.30;40.70;;;;;;6126887;28;81332;-59